Time;durP1;ratioP1;P1;durP2;ratioP2;P2;SDS_P1;SDS_P2;PMS_P1;PMS_P2;Temp;Humidity;BMP_temperature;BMP_pressure;BME280_temperature;BME280_humidity;BME280_pressure;Samples;Min_cycle;Max_cycle;Signal;HPM_P1;HPM_P2
2022/02/03 07:24:15;;;;;;;;;9.00;7.67;;;;;;;;6328439;22;46368;31
2022/02/03 07:26:40;;;;;;;;;15.00;13.33;;;;;;;;6274978;22;45215;-93
2022/02/03 07:29:06;;;;;;;;;10.67;10.00;;;;;;;;6300625;22;45577;-90
2022/02/03 07:31:31;;;;;;;;;13.67;11.00;;;;;;;;6279707;22;45868;-91
2022/02/03 07:34:00;;;;;;;;;8.67;8.67;;;;;;;;6305395;22;45181;-91
2022/02/03 07:36:25;;;;;;;;;10.33;8.67;;;;;;;;6306125;22;45293;-91
2022/02/03 07:38:52;;;;;;;;;15.00;9.33;;;;;;;;6308876;22;45242;-92
2022/02/03 07:41:17;;;;;;;;;11.33;11.33;;;;;;;;6277729;22;45318;-92
2022/02/03 07:43:42;;;;;;;;;14.00;12.33;;;;;;;;6277792;22;45494;-93
2022/02/03 07:46:08;;;;;;;;;16.67;12.00;;;;;;;;6307472;22;45313;-92
2022/02/03 07:48:33;;;;;;;;;16.33;13.00;;;;;;;;6280890;22;47363;-93
2022/02/03 07:50:58;;;;;;;;;11.67;10.00;;;;;;;;6272821;22;46149;-92
2022/02/03 07:53:23;;;;;;;;;13.33;9.33;;;;;;;;6304290;22;45354;-92
2022/02/03 07:55:49;;;;;;;;;13.67;11.33;;;;;;;;6278673;22;45266;-92
2022/02/03 07:58:14;;;;;;;;;11.33;10.00;;;;;;;;6306602;22;45332;-92
2022/02/03 08:00:39;;;;;;;;;14.00;13.00;;;;;;;;6279537;22;45343;-92
2022/02/03 08:03:10;;;;;;;;;13.00;11.67;;;;;;;;6278555;22;45318;-91
2022/02/03 08:05:36;;;;;;;;;13.33;13.33;;;;;;;;6275664;22;45418;-91
2022/02/03 08:08:16;;;;;;;;;11.67;10.33;;;;;;;;6301404;22;47336;-91
2022/02/03 08:10:49;;;;;;;;;14.67;11.67;;;;;;;;6272777;22;45757;-92
2022/02/03 08:14:06;;;;;;;;;17.67;12.67;;;;;;;;6272241;22;45603;-92
2022/02/03 08:16:11;;;;;;;;;13.33;13.00;;;;;;;;6289403;22;45301;-93
2022/02/03 08:18:39;;;;;;;;;14.00;13.00;;;;;;;;6274586;22;47258;-93
2022/02/03 08:21:07;;;;;;;;;13.00;12.00;;;;;;;;6275055;22;45574;-92
2022/02/03 08:26:11;;;;;;;;;14.00;9.67;;;;;;;;6301109;22;45278;-91
2022/02/03 08:28:57;;;;;;;;;13.67;12.00;;;;;;;;6272612;22;47107;-91
2022/02/03 08:31:26;;;;;;;;;16.67;12.00;;;;;;;;6273620;22;46104;-91
2022/02/03 08:33:54;;;;;;;;;13.33;12.00;;;;;;;;6273775;22;45632;-91
2022/02/03 08:36:21;;;;;;;;;17.33;13.67;;;;;;;;6275508;22;45420;-90
2022/02/03 08:38:49;;;;;;;;;12.33;12.33;;;;;;;;6275435;22;47212;-91
2022/02/03 08:41:14;;;;;;;;;18.00;14.00;;;;;;;;6275169;22;45387;-95
2022/02/03 08:43:41;;;;;;;;;18.00;13.67;;;;;;;;6303388;22;45371;-92
2022/02/03 08:46:08;;;;;;;;;13.00;11.33;;;;;;;;6301708;22;45468;-91
2022/02/03 08:48:34;;;;;;;;;13.33;13.33;;;;;;;;6270663;22;47604;-91
2022/02/03 08:51:01;;;;;;;;;13.67;13.33;;;;;;;;6299181;22;45569;-91
2022/02/03 08:53:33;;;;;;;;;14.67;13.00;;;;;;;;6298297;22;45473;-90
2022/02/03 09:39:54;;;;;;;;;18.67;14.33;;;;;;;;6300750;22;45417;-92
2022/02/03 09:50:10;;;;;;;;;11.33;11.33;;;;;;;;6300577;22;45375;-92
2022/02/03 09:58:18;;;;;;;;;17.00;15.00;;;;;;;;6145179;23;45382;-92
2022/02/03 10:03:34;;;;;;;;;15.00;12.33;;;;;;;;6143743;23;45430;-92
2022/02/03 10:06:11;;;;;;;;;16.33;14.33;;;;;;;;6149268;23;45376;-91
2022/02/03 10:08:37;;;;;;;;;21.33;18.00;;;;;;;;6150627;23;45285;-91
2022/02/03 10:11:15;;;;;;;;;20.00;18.67;;;;;;;;6149713;23;45362;-91
2022/02/03 10:13:42;;;;;;;;;19.67;18.67;;;;;;;;6148603;23;46764;-92
2022/02/03 10:16:07;;;;;;;;;17.67;15.67;;;;;;;;6150046;23;45764;-91
2022/02/03 10:18:32;;;;;;;;;21.33;18.00;;;;;;;;6146456;23;45564;-91
2022/02/03 10:21:00;;;;;;;;;20.67;20.00;;;;;;;;6148270;23;45493;-92
2022/02/03 10:23:27;;;;;;;;;17.67;17.00;;;;;;;;6148272;23;47329;-92
2022/02/03 10:25:56;;;;;;;;;22.33;16.00;;;;;;;;6149711;23;45301;-93
2022/02/03 10:28:24;;;;;;;;;18.67;15.33;;;;;;;;6149425;23;44801;-94
2022/02/03 10:30:54;;;;;;;;;30.50;27.50;;;;;;;;6276978;22;45274;-92
2022/02/03 10:33:29;;;;;;;;;22.00;21.75;;;;;;;;6275827;22;46993;-95
2022/02/03 10:35:59;;;;;;;;;19.00;18.67;;;;;;;;6304089;22;45372;-93
2022/02/03 10:49:40;;;;;;;;;17.33;16.67;;;;;;;;6298442;22;45379;-92
2022/02/03 10:57:49;;;;;;;;;20.33;15.33;;;;;;;;6328614;22;45167;-92
2022/02/03 11:08:22;;;;;;;;;18.67;14.67;;;;;;;;6284922;22;45202;-92
2022/02/03 11:10:52;;;;;;;;;19.33;16.00;;;;;;;;6389659;22;45241;-92
2022/02/03 11:13:19;;;;;;;;;14.33;14.00;;;;;;;;6354413;22;45601;-91
2022/02/03 11:15:44;;;;;;;;;17.67;15.67;;;;;;;;6340668;22;47152;-92
2022/02/03 11:18:11;;;;;;;;;17.33;14.67;;;;;;;;6339123;22;45284;-91
2022/02/03 11:20:40;;;;;;;;;21.67;17.67;;;;;;;;6337723;22;45277;-91
2022/02/03 11:25:42;;;;;;;;;17.33;14.67;;;;;;;;6360628;22;46141;-91
2022/02/03 11:47:07;;;;;;;;;20.67;15.33;;;;;;;;6367114;22;45280;-92
2022/02/03 12:11:17;;;;;;;;;18.00;15.67;;;;;;;;6367242;22;45342;-92
2022/02/03 12:21:55;;;;;;;;;16.00;13.00;;;;;;;;6365841;22;45270;-95
2022/02/03 12:24:41;;;;;;;;;20.00;16.67;;;;;;;;6338377;22;45495;-95
2022/02/03 12:29:56;;;;;;;;;20.67;20.00;;;;;;;;6366121;22;45337;-94
2022/02/03 12:32:42;;;;;;;;;18.33;15.67;;;;;;;;6339123;22;45526;-92
2022/02/03 12:38:27;;;;;;;;;20.67;19.00;;;;;;;;6239027;22;45344;-95
2022/02/03 12:40:55;;;;;;;;;18.67;15.00;;;;;;;;6212925;22;47414;-93
2022/02/03 12:43:37;;;;;;;;;22.67;14.67;;;;;;;;6237768;22;45159;-92
2022/02/03 12:46:03;;;;;;;;;23.50;18.00;;;;;;;;6239016;22;45380;-93
2022/02/03 12:48:37;;;;;;;;;21.00;19.67;;;;;;;;6212792;22;45640;-94
2022/02/03 12:51:04;;;;;;;;;20.33;17.00;;;;;;;;6213359;22;47108;-95
2022/02/03 12:53:33;;;;;;;;;20.67;18.00;;;;;;;;6213088;22;45864;-92
2022/02/03 12:55:58;;;;;;;;;20.33;17.00;;;;;;;;6237918;22;45502;-94
2022/02/03 12:58:26;;;;;;;;;20.00;17.00;;;;;;;;6211017;22;45954;-94
2022/02/03 13:01:02;;;;;;;;;22.33;17.33;;;;;;;;6210821;22;48044;-92
2022/02/03 13:03:36;;;;;;;;;21.00;20.00;;;;;;;;6240921;22;45211;-92
2022/02/03 13:06:05;;;;;;;;;27.00;19.00;;;;;;;;6241848;22;45393;-93
2022/02/03 13:08:31;;;;;;;;;20.67;20.00;;;;;;;;6214222;22;45456;-92
2022/02/03 13:11:05;;;;;;;;;22.33;18.00;;;;;;;;6216039;22;47290;-93
2022/02/03 13:13:40;;;;;;;;;20.33;19.00;;;;;;;;6254327;22;45564;-92
2022/02/03 13:16:09;;;;;;;;;17.67;17.00;;;;;;;;6341949;22;45255;-93
2022/02/03 13:18:38;;;;;;;;;23.33;18.33;;;;;;;;6338950;22;45482;-96
2022/02/03 13:25:05;;;;;;;;;21.33;18.67;;;;;;;;6373714;22;45336;-96
2022/02/03 13:27:00;;;;;;;;;16.00;14.33;;;;;;;;6346546;22;45311;-96
2022/02/03 13:29:37;;;;;;;;;21.67;19.67;;;;;;;;6345850;22;45375;-96
2022/02/03 13:32:11;;;;;;;;;19.00;16.33;;;;;;;;6341349;22;47105;-96
2022/02/03 13:34:46;;;;;;;;;29.33;18.33;;;;;;;;6344355;22;45442;-96
2022/02/03 13:37:21;;;;;;;;;20.33;19.00;;;;;;;;6344428;22;45371;-96
2022/02/03 13:39:47;;;;;;;;;23.00;18.00;;;;;;;;6345995;22;45439;-96
2022/02/03 13:42:14;;;;;;;;;20.00;18.33;;;;;;;;6347037;22;47344;-96
2022/02/03 13:44:42;;;;;;;;;21.33;20.00;;;;;;;;6346475;22;45771;-96
2022/02/03 13:47:24;;;;;;;;;26.33;23.33;;;;;;;;6344490;22;45148;-96
2022/02/03 13:50:02;;;;;;;;;24.00;20.33;;;;;;;;6344569;22;45278;-96
2022/02/03 13:53:12;;;;;;;;;25.00;19.00;;;;;;;;6343576;22;47306;-96
2022/02/03 14:12:22;;;;;;;;;19.67;18.00;;;;;;;;6375124;22;45618;-96
2022/02/03 14:17:28;;;;;;;;;19.00;15.33;;;;;;;;6366430;22;45263;-96
2022/02/03 14:28:04;;;;;;;;;16.67;14.67;;;;;;;;6185258;23;45251;-96
2022/02/03 14:30:29;;;;;;;;;23.33;17.33;;;;;;;;6157065;23;45376;-96
2022/02/03 14:32:57;;;;;;;;;20.00;16.33;;;;;;;;6156635;23;45369;-96
2022/02/03 14:35:23;;;;;;;;;20.00;17.00;;;;;;;;6156228;23;46921;-96
2022/02/03 14:40:36;;;;;;;;;29.67;20.00;;;;;;;;6181415;23;45462;-95
2022/02/03 14:43:03;;;;;;;;;18.33;16.33;;;;;;;;6153100;23;45275;-96
2022/02/03 14:45:29;;;;;;;;;25.67;17.67;;;;;;;;6153953;23;47140;-96
2022/02/03 14:47:54;;;;;;;;;19.00;17.67;;;;;;;;6153105;23;45688;-96
2022/02/03 14:50:20;;;;;;;;;22.33;17.67;;;;;;;;6154683;23;45295;-96
2022/02/03 14:52:57;;;;;;;;;18.33;15.33;;;;;;;;6154904;23;45453;-96
2022/02/03 14:58:29;;;;;;;;;17.33;17.33;;;;;;;;6224404;22;44786;-96
2022/02/03 15:00:53;;;;;;;;;24.67;19.67;;;;;;;;6260366;22;44729;-96
2022/02/03 15:03:19;;;;;;;;;21.00;18.00;;;;;;;;6360373;22;44884;-96
2022/02/03 15:05:45;;;;;;;;;21.33;16.33;;;;;;;;6358339;22;47150;-93
2022/02/03 15:08:17;;;;;;;;;19.33;15.67;;;;;;;;6338184;22;46039;-94
2022/02/03 15:10:46;;;;;;;;;15.67;15.67;;;;;;;;6337738;22;45385;-91
2022/02/03 15:15:38;;;;;;;;;21.67;15.33;;;;;;;;6364563;22;45649;-91
2022/02/03 15:18:04;;;;;;;;;16.33;15.67;;;;;;;;6364286;22;45467;-93
2022/02/03 15:20:30;;;;;;;;;16.67;15.33;;;;;;;;6336784;22;45207;-92
2022/02/03 15:22:55;;;;;;;;;12.00;9.67;;;;;;;;6338577;22;45339;-92
2022/02/03 15:25:21;;;;;;;;;20.33;16.33;;;;;;;;6335703;22;48121;-92
2022/02/03 15:27:46;;;;;;;;;16.67;15.00;;;;;;;;6338168;22;45850;-93
2022/02/03 15:30:12;;;;;;;;;22.67;17.67;;;;;;;;6339198;22;45396;-92
2022/02/03 15:32:40;;;;;;;;;20.33;16.00;;;;;;;;6337480;22;45397;-94
2022/02/03 15:35:09;;;;;;;;;19.00;15.33;;;;;;;;6338495;22;47223;-94
2022/02/03 15:37:34;;;;;;;;;21.67;17.33;;;;;;;;6336372;22;45292;-92
2022/02/03 15:40:04;;;;;;;;;17.00;15.00;;;;;;;;6333861;22;45526;-93
2022/02/03 15:42:36;;;;;;;;;16.33;15.00;;;;;;;;6336634;22;45307;-92
2022/02/03 15:45:04;;;;;;;;;19.33;15.67;;;;;;;;6337171;22;47046;-93
2022/02/03 15:47:35;;;;;;;;;22.00;17.33;;;;;;;;6339015;22;45319;-93
2022/02/03 16:03:59;;;;;;;;;15.67;15.67;;;;;;;;6368240;22;45315;-95
2022/02/03 16:17:01;;;;;;;;;16.67;14.00;;;;;;;;6371189;22;45556;-94
2022/02/03 16:19:35;;;;;;;;;16.00;13.67;;;;;;;;6338831;22;45374;-94
2022/02/03 16:22:07;;;;;;;;;19.00;15.67;;;;;;;;6338779;22;45298;-94
2022/02/03 16:24:51;;;;;;;;;21.33;17.00;;;;;;;;6340902;22;45323;-94
2022/02/03 16:54:16;;;;;;;;;15.00;14.00;;;;;;;;6301129;22;45277;-94
2022/02/03 16:56:42;;;;;;;;;21.67;17.00;;;;;;;;6274779;22;45361;-93
2022/02/03 16:59:07;;;;;;;;;18.00;13.67;;;;;;;;6274064;22;47094;-93
2022/02/03 17:01:33;;;;;;;;;17.00;15.33;;;;;;;;6318923;22;45789;-93
2022/02/03 17:03:58;;;;;;;;;20.00;13.67;;;;;;;;6343535;22;45266;-92
2022/02/03 17:06:23;;;;;;;;;15.67;15.00;;;;;;;;6345011;22;45456;-92
2022/02/03 17:08:49;;;;;;;;;15.00;13.33;;;;;;;;6342760;22;48321;-94
2022/02/03 17:11:14;;;;;;;;;19.00;16.33;;;;;;;;6345011;22;45567;-92
2022/02/03 17:13:39;;;;;;;;;20.67;15.33;;;;;;;;6344163;22;45299;-93
2022/02/03 17:16:05;;;;;;;;;14.67;14.67;;;;;;;;6343324;22;45570;-93
2022/02/03 17:18:30;;;;;;;;;17.67;13.33;;;;;;;;6344745;22;47948;-93
2022/02/03 17:20:56;;;;;;;;;15.67;14.67;;;;;;;;6343720;22;46010;-92
2022/02/03 17:23:23;;;;;;;;;18.67;15.00;;;;;;;;6372200;22;45734;-93
2022/02/03 17:26:13;;;;;;;;;16.00;13.00;;;;;;;;6344263;22;45349;-93
2022/02/03 17:28:49;;;;;;;;;13.00;12.67;;;;;;;;6343501;22;47344;-92
2022/02/03 17:31:23;;;;;;;;;20.67;14.67;;;;;;;;6344229;22;45385;-93
2022/02/03 18:08:46;;;;;;;;;17.00;13.67;;;;;;;;6371852;22;44707;-94
2022/02/03 18:54:12;;;;;;;;;20.33;19.00;;;;;;;;6374896;22;45252;-91
2022/02/03 18:56:17;;;;;;;;;28.00;26.33;;;;;;;;6372214;22;44742;-92
2022/02/03 18:58:49;;;;;;;;;34.25;29.75;;;;;;;;6380208;22;45110;-92
2022/02/03 19:28:01;;;;;;;;;19.33;17.67;;;;;;;;6368942;22;45354;-92
2022/02/03 20:06:13;;;;;;;;;19.67;17.67;;;;;;;;6365185;22;45396;-89
2022/02/03 20:08:46;;;;;;;;;21.00;19.00;;;;;;;;6337283;22;47266;-92
2022/02/03 20:11:14;;;;;;;;;22.00;17.33;;;;;;;;6365597;22;45652;-89
2022/02/03 20:21:04;;;;;;;;;17.67;15.33;;;;;;;;6149421;23;46088;-96
2022/02/03 20:45:38;;;;;;;;;22.00;20.00;;;;;;;;5134881;27;45315;-95
2022/02/03 20:48:04;;;;;;;;;16.67;15.67;;;;;;;;5094506;27;45745;-93
2022/02/03 20:50:51;;;;;;;;;;;;;;;;;;;;;
2022/02/03 20:53:22;;;;;;;;;21.33;20.00;;;;;;;;5102706;27;69072;-94
2022/02/03 21:01:53;;;;;;;;;21.33;16.00;;;;;;;;5094011;27;45572;-95
2022/02/03 21:12:44;;;;;;;;;15.67;14.00;;;;;;;;4948473;28;46063;-95
2022/02/03 21:15:20;;;;;;;;;19.00;16.67;;;;;;;;4932884;28;45359;-94
2022/02/03 21:17:51;;;;;;;;;14.33;13.00;;;;;;;;4933790;28;47878;-95
2022/02/03 21:20:19;;;;;;;;;18.00;13.33;;;;;;;;4929079;28;45515;-95
2022/02/03 21:22:57;;;;;;;;;;;;;;;;;;;;;
2022/02/03 21:25:32;;;;;;;;;13.00;12.00;;;;;;;;4931075;28;69864;-95
2022/02/03 21:28:03;;;;;;;;;19.67;14.67;;;;;;;;4933111;28;47258;-94
2022/02/03 21:31:14;;;;;;;;;4.00;2.67;;;;;;;;4947815;28;45622;-96
2022/02/03 21:33:25;;;;;;;;;16.67;12.33;;;;;;;;4951732;28;45391;-94
2022/02/03 21:35:57;;;;;;;;;14.00;12.33;;;;;;;;4934714;28;45643;-95
2022/02/03 21:38:27;;;;;;;;;14.00;11.67;;;;;;;;4926415;28;47265;-95
2022/02/03 21:40:53;;;;;;;;;15.00;14.00;;;;;;;;4931296;28;45596;-94
2022/02/03 21:43:18;;;;;;;;;16.00;12.33;;;;;;;;4930479;28;45575;-93
2022/02/03 21:45:53;;;;;;;;;15.33;13.67;;;;;;;;4930140;28;45446;-94
2022/02/03 21:48:18;;;;;;;;;17.00;15.00;;;;;;;;4915195;28;48320;-93
2022/02/03 21:50:49;;;;;;;;;11.00;10.00;;;;;;;;4933439;28;45400;-94
2022/02/03 21:53:22;;;;;;;;;14.00;10.00;;;;;;;;4934986;28;45535;-95
2022/02/03 21:55:52;;;;;;;;;12.67;10.67;;;;;;;;4921975;28;45641;-95
2022/02/03 21:58:25;;;;;;;;;16.67;14.00;;;;;;;;4901796;28;47183;-95
2022/02/03 22:00:59;;;;;;;;;15.33;10.67;;;;;;;;4917979;28;46019;-95
2022/02/03 22:03:30;;;;;;;;;14.67;13.00;;;;;;;;4927427;28;45491;-95
2022/02/03 22:05:58;;;;;;;;;14.33;11.00;;;;;;;;4923195;28;45380;-95
2022/02/03 22:08:24;;;;;;;;;10.00;9.00;;;;;;;;4919368;28;47601;-95
2022/02/03 22:11:00;;;;;;;;;11.67;11.33;;;;;;;;4919615;28;45330;-95
2022/02/03 22:13:34;;;;;;;;;17.33;13.67;;;;;;;;4919747;28;45409;-96
2022/02/03 22:16:13;;;;;;;;;16.67;11.00;;;;;;;;4920338;28;45272;-95
2022/02/03 22:18:41;;;;;;;;;12.33;12.00;;;;;;;;4920526;28;47022;-96
2022/02/03 22:21:23;;;;;;;;;11.00;9.67;;;;;;;;4920114;28;45468;-95
2022/02/03 22:23:59;;;;;;;;;11.00;11.00;;;;;;;;4916461;28;45499;-95
2022/02/03 22:43:16;;;;;;;;;12.00;10.00;;;;;;;;5003477;28;45647;-95
2022/02/03 22:46:09;;;;;;;;;11.33;9.67;;;;;;;;4988332;28;44783;-95
2022/02/03 22:49:00;;;;;;;;;18.67;13.00;;;;;;;;4984170;28;44840;-95
2022/02/03 22:51:28;;;;;;;;;12.33;12.00;;;;;;;;5001323;28;47403;-96
2022/02/03 22:53:53;;;;;;;;;17.67;15.00;;;;;;;;4969455;28;45466;-96
2022/02/03 22:56:19;;;;;;;;;15.00;12.33;;;;;;;;4962465;28;45508;-95
2022/02/03 23:01:30;;;;;;;;;10.00;9.67;;;;;;;;4967933;28;46008;-95
2022/02/03 23:03:58;;;;;;;;;13.33;12.00;;;;;;;;4960724;28;46018;-95
2022/02/03 23:06:27;;;;;;;;;11.33;11.00;;;;;;;;4976583;28;45485;-96
2022/02/03 23:17:51;;;;;;;;;18.67;14.00;;;;;;;;5029624;28;45285;-94
2022/02/03 23:22:31;;;;;;;;;12.00;11.67;;;;;;;;5037068;28;45568;-94
2022/02/03 23:24:57;;;;;;;;;16.00;14.00;;;;;;;;5019306;28;45668;-95
2022/02/03 23:29:55;;;;;;;;;16.33;14.00;;;;;;;;5036970;28;45466;-95
2022/02/03 23:32:23;;;;;;;;;17.00;15.67;;;;;;;;5021044;28;47099;-95
2022/02/03 23:35:00;;;;;;;;;14.00;11.67;;;;;;;;5021914;28;45450;-95
2022/02/03 23:37:38;;;;;;;;;14.00;12.33;;;;;;;;5004048;28;45481;-95
2022/02/03 23:40:18;;;;;;;;;17.67;14.67;;;;;;;;5018320;28;45555;-96
2022/02/03 23:52:09;;;;;;;;;17.00;13.33;;;;;;;;5030324;28;44789;-95
